sensor_id;sensor_type;location;lat;lon;timestamp;P1;durP1;ratioP1;P2;durP2;ratioP2
36233;SDS011;43467;50.890;5.982;2023-02-28T00:01:09;7.72;;;5.65;;
36233;SDS011;43467;50.890;5.982;2023-02-28T00:03:35;8.48;;;5.40;;
36233;SDS011;43467;50.890;5.982;2023-02-28T00:06:02;10.57;;;5.75;;
36233;SDS011;43467;50.890;5.982;2023-02-28T00:08:28;10.30;;;6.00;;
36233;SDS011;43467;50.890;5.982;2023-02-28T00:10:54;10.93;;;5.72;;
36233;SDS011;43467;50.890;5.982;2023-02-28T00:13:19;10.10;;;5.30;;
36233;SDS011;43467;50.890;5.982;2023-02-28T00:15:45;8.38;;;4.97;;
36233;SDS011;43467;50.890;5.982;2023-02-28T00:18:10;7.47;;;5.22;;
36233;SDS011;43467;50.890;5.982;2023-02-28T00:20:36;11.15;;;5.70;;
36233;SDS011;43467;50.890;5.982;2023-02-28T00:23:02;10.15;;;6.82;;
36233;SDS011;43467;50.890;5.982;2023-02-28T00:25:27;9.43;;;5.38;;
36233;SDS011;43467;50.890;5.982;2023-02-28T00:27:53;10.00;;;5.93;;
36233;SDS011;43467;50.890;5.982;2023-02-28T00:30:19;6.68;;;4.70;;
36233;SDS011;43467;50.890;5.982;2023-02-28T00:32:46;10.27;;;5.25;;
36233;SDS011;43467;50.890;5.982;2023-02-28T00:35:12;10.73;;;5.60;;
36233;SDS011;43467;50.890;5.982;2023-02-28T00:37:38;10.27;;;5.60;;
36233;SDS011;43467;50.890;5.982;2023-02-28T00:40:04;9.95;;;5.57;;
36233;SDS011;43467;50.890;5.982;2023-02-28T00:42:31;12.43;;;5.10;;
36233;SDS011;43467;50.890;5.982;2023-02-28T00:44:57;12.43;;;5.00;;
36233;SDS011;43467;50.890;5.982;2023-02-28T00:47:22;10.02;;;5.88;;
36233;SDS011;43467;50.890;5.982;2023-02-28T00:49:47;7.03;;;5.53;;
36233;SDS011;43467;50.890;5.982;2023-02-28T00:52:13;8.75;;;5.32;;
36233;SDS011;43467;50.890;5.982;2023-02-28T00:54:38;10.27;;;5.20;;
36233;SDS011;43467;50.890;5.982;2023-02-28T00:57:04;8.25;;;5.45;;
36233;SDS011;43467;50.890;5.982;2023-02-28T00:59:29;9.90;;;5.47;;
36233;SDS011;43467;50.890;5.982;2023-02-28T01:01:54;10.50;;;5.78;;
36233;SDS011;43467;50.890;5.982;2023-02-28T01:04:20;9.05;;;5.40;;
36233;SDS011;43467;50.890;5.982;2023-02-28T01:06:45;9.52;;;5.90;;
36233;SDS011;43467;50.890;5.982;2023-02-28T01:09:11;8.05;;;4.88;;
36233;SDS011;43467;50.890;5.982;2023-02-28T01:11:36;11.50;;;6.13;;
36233;SDS011;43467;50.890;5.982;2023-02-28T01:14:02;9.75;;;6.38;;
36233;SDS011;43467;50.890;5.982;2023-02-28T01:16:29;11.52;;;5.25;;
36233;SDS011;43467;50.890;5.982;2023-02-28T01:18:55;9.00;;;6.05;;
36233;SDS011;43467;50.890;5.982;2023-02-28T01:21:21;7.22;;;5.00;;
36233;SDS011;43467;50.890;5.982;2023-02-28T01:23:47;13.05;;;5.63;;
36233;SDS011;43467;50.890;5.982;2023-02-28T01:26:14;7.93;;;5.63;;
36233;SDS011;43467;50.890;5.982;2023-02-28T01:28:46;9.07;;;5.20;;
36233;SDS011;43467;50.890;5.982;2023-02-28T01:31:13;9.43;;;5.35;;
36233;SDS011;43467;50.890;5.982;2023-02-28T01:33:40;10.98;;;5.18;;
36233;SDS011;43467;50.890;5.982;2023-02-28T01:36:06;8.32;;;4.55;;
36233;SDS011;43467;50.890;5.982;2023-02-28T01:38:35;10.95;;;4.82;;
36233;SDS011;43467;50.890;5.982;2023-02-28T01:41:00;9.25;;;5.00;;
36233;SDS011;43467;50.890;5.982;2023-02-28T01:43:27;9.60;;;5.15;;
36233;SDS011;43467;50.890;5.982;2023-02-28T01:45:57;9.50;;;4.75;;
36233;SDS011;43467;50.890;5.982;2023-02-28T01:48:35;10.35;;;4.55;;
36233;SDS011;43467;50.890;5.982;2023-02-28T01:51:05;7.25;;;5.18;;
36233;SDS011;43467;50.890;5.982;2023-02-28T01:53:53;8.52;;;4.70;;
36233;SDS011;43467;50.890;5.982;2023-02-28T01:56:24;8.13;;;4.68;;
36233;SDS011;43467;50.890;5.982;2023-02-28T01:58:53;7.25;;;3.83;;
36233;SDS011;43467;50.890;5.982;2023-02-28T02:01:20;6.30;;;4.35;;
36233;SDS011;43467;50.890;5.982;2023-02-28T02:03:54;6.25;;;4.13;;
36233;SDS011;43467;50.890;5.982;2023-02-28T02:06:23;7.63;;;4.05;;
36233;SDS011;43467;50.890;5.982;2023-02-28T02:08:52;7.28;;;4.35;;
36233;SDS011;43467;50.890;5.982;2023-02-28T02:11:18;7.40;;;4.28;;
36233;SDS011;43467;50.890;5.982;2023-02-28T02:16:53;6.95;;;4.28;;
36233;SDS011;43467;50.890;5.982;2023-02-28T02:35:54;6.03;;;3.53;;
36233;SDS011;43467;50.890;5.982;2023-02-28T02:38:33;8.18;;;4.30;;
36233;SDS011;43467;50.890;5.982;2023-02-28T02:41:11;10.63;;;4.88;;
36233;SDS011;43467;50.890;5.982;2023-02-28T02:46:35;9.00;;;4.80;;
36233;SDS011;43467;50.890;5.982;2023-02-28T02:49:08;10.32;;;4.25;;
36233;SDS011;43467;50.890;5.982;2023-02-28T02:51:40;9.05;;;4.32;;
36233;SDS011;43467;50.890;5.982;2023-02-28T02:54:11;9.20;;;4.18;;
36233;SDS011;43467;50.890;5.982;2023-02-28T02:59:10;8.40;;;4.90;;
36233;SDS011;43467;50.890;5.982;2023-02-28T03:01:38;7.32;;;4.20;;
36233;SDS011;43467;50.890;5.982;2023-02-28T03:04:11;5.95;;;3.63;;
36233;SDS011;43467;50.890;5.982;2023-02-28T03:06:41;8.90;;;4.38;;
36233;SDS011;43467;50.890;5.982;2023-02-28T03:09:06;7.13;;;4.00;;
36233;SDS011;43467;50.890;5.982;2023-02-28T03:11:32;5.40;;;3.70;;
36233;SDS011;43467;50.890;5.982;2023-02-28T03:24:57;12.15;;;3.75;;
36233;SDS011;43467;50.890;5.982;2023-02-28T03:28:05;8.73;;;4.03;;
36233;SDS011;43467;50.890;5.982;2023-02-28T03:30:39;7.53;;;4.05;;
36233;SDS011;43467;50.890;5.982;2023-02-28T03:35:41;8.32;;;4.40;;
36233;SDS011;43467;50.890;5.982;2023-02-28T03:38:18;7.28;;;4.07;;
36233;SDS011;43467;50.890;5.982;2023-02-28T03:40:55;12.65;;;4.30;;
36233;SDS011;43467;50.890;5.982;2023-02-28T03:43:28;8.77;;;4.35;;
36233;SDS011;43467;50.890;5.982;2023-02-28T03:45:56;8.57;;;4.20;;
36233;SDS011;43467;50.890;5.982;2023-02-28T03:48:36;6.57;;;4.40;;
36233;SDS011;43467;50.890;5.982;2023-02-28T03:51:08;8.10;;;4.28;;
36233;SDS011;43467;50.890;5.982;2023-02-28T03:53:39;7.07;;;4.57;;
36233;SDS011;43467;50.890;5.982;2023-02-28T03:56:53;10.15;;;4.47;;
36233;SDS011;43467;50.890;5.982;2023-02-28T04:01:48;7.63;;;4.57;;
36233;SDS011;43467;50.890;5.982;2023-02-28T04:04:15;7.32;;;5.03;;
36233;SDS011;43467;50.890;5.982;2023-02-28T04:06:42;8.95;;;4.80;;
36233;SDS011;43467;50.890;5.982;2023-02-28T04:09:09;9.30;;;5.10;;
36233;SDS011;43467;50.890;5.982;2023-02-28T04:11:37;10.90;;;5.30;;
36233;SDS011;43467;50.890;5.982;2023-02-28T04:14:05;9.50;;;5.50;;
36233;SDS011;43467;50.890;5.982;2023-02-28T04:16:33;8.88;;;5.40;;
36233;SDS011;43467;50.890;5.982;2023-02-28T04:19:00;9.20;;;5.15;;
36233;SDS011;43467;50.890;5.982;2023-02-28T04:21:34;10.23;;;5.53;;
36233;SDS011;43467;50.890;5.982;2023-02-28T04:24:02;8.93;;;5.78;;
36233;SDS011;43467;50.890;5.982;2023-02-28T04:26:32;8.80;;;5.50;;
36233;SDS011;43467;50.890;5.982;2023-02-28T04:28:59;10.13;;;4.93;;
36233;SDS011;43467;50.890;5.982;2023-02-28T04:31:27;10.52;;;7.32;;
36233;SDS011;43467;50.890;5.982;2023-02-28T04:33:53;15.38;;;6.15;;
36233;SDS011;43467;50.890;5.982;2023-02-28T04:36:18;9.20;;;5.68;;
36233;SDS011;43467;50.890;5.982;2023-02-28T04:38:44;9.40;;;6.10;;
36233;SDS011;43467;50.890;5.982;2023-02-28T04:41:10;10.27;;;6.07;;
36233;SDS011;43467;50.890;5.982;2023-02-28T04:43:36;11.68;;;6.70;;
36233;SDS011;43467;50.890;5.982;2023-02-28T04:46:02;14.10;;;6.53;;
36233;SDS011;43467;50.890;5.982;2023-02-28T04:48:29;10.27;;;6.45;;
36233;SDS011;43467;50.890;5.982;2023-02-28T04:50:59;11.95;;;6.40;;
36233;SDS011;43467;50.890;5.982;2023-02-28T04:53:25;9.00;;;6.05;;
36233;SDS011;43467;50.890;5.982;2023-02-28T04:55:53;10.52;;;6.68;;
36233;SDS011;43467;50.890;5.982;2023-02-28T04:58:18;10.35;;;6.10;;
36233;SDS011;43467;50.890;5.982;2023-02-28T05:00:44;13.65;;;6.68;;
36233;SDS011;43467;50.890;5.982;2023-02-28T05:03:09;11.25;;;6.32;;
36233;SDS011;43467;50.890;5.982;2023-02-28T05:05:35;8.35;;;6.05;;
36233;SDS011;43467;50.890;5.982;2023-02-28T05:08:00;11.20;;;6.78;;
36233;SDS011;43467;50.890;5.982;2023-02-28T05:10:25;11.70;;;6.80;;
36233;SDS011;43467;50.890;5.982;2023-02-28T05:12:52;14.05;;;7.13;;
36233;SDS011;43467;50.890;5.982;2023-02-28T05:15:17;11.10;;;6.60;;
36233;SDS011;43467;50.890;5.982;2023-02-28T05:17:42;10.55;;;6.65;;
36233;SDS011;43467;50.890;5.982;2023-02-28T05:20:08;14.05;;;7.45;;
36233;SDS011;43467;50.890;5.982;2023-02-28T05:22:36;11.70;;;6.78;;
36233;SDS011;43467;50.890;5.982;2023-02-28T05:25:02;14.65;;;8.35;;
36233;SDS011;43467;50.890;5.982;2023-02-28T05:27:29;15.50;;;8.00;;
36233;SDS011;43467;50.890;5.982;2023-02-28T05:29:55;12.93;;;7.97;;
36233;SDS011;43467;50.890;5.982;2023-02-28T05:32:21;12.27;;;7.78;;
36233;SDS011;43467;50.890;5.982;2023-02-28T05:34:46;12.73;;;6.78;;
36233;SDS011;43467;50.890;5.982;2023-02-28T05:37:12;12.82;;;6.85;;
36233;SDS011;43467;50.890;5.982;2023-02-28T05:39:38;13.13;;;7.63;;
36233;SDS011;43467;50.890;5.982;2023-02-28T05:42:04;10.70;;;7.10;;
36233;SDS011;43467;50.890;5.982;2023-02-28T05:44:30;11.23;;;6.88;;
36233;SDS011;43467;50.890;5.982;2023-02-28T05:46:55;12.45;;;6.60;;
36233;SDS011;43467;50.890;5.982;2023-02-28T05:49:21;9.77;;;6.75;;
36233;SDS011;43467;50.890;5.982;2023-02-28T05:51:47;10.98;;;7.50;;
36233;SDS011;43467;50.890;5.982;2023-02-28T05:54:12;11.13;;;6.68;;
36233;SDS011;43467;50.890;5.982;2023-02-28T05:56:38;11.60;;;7.07;;
36233;SDS011;43467;50.890;5.982;2023-02-28T05:59:05;13.65;;;6.85;;
36233;SDS011;43467;50.890;5.982;2023-02-28T06:01:35;10.90;;;6.85;;
36233;SDS011;43467;50.890;5.982;2023-02-28T06:04:02;11.38;;;6.97;;
36233;SDS011;43467;50.890;5.982;2023-02-28T06:06:29;11.23;;;6.47;;
36233;SDS011;43467;50.890;5.982;2023-02-28T06:08:55;14.25;;;7.60;;
36233;SDS011;43467;50.890;5.982;2023-02-28T06:11:20;10.93;;;7.25;;
36233;SDS011;43467;50.890;5.982;2023-02-28T06:13:47;10.15;;;6.82;;
36233;SDS011;43467;50.890;5.982;2023-02-28T06:16:12;9.35;;;7.00;;
36233;SDS011;43467;50.890;5.982;2023-02-28T06:18:38;9.98;;;7.00;;
36233;SDS011;43467;50.890;5.982;2023-02-28T06:21:04;11.98;;;7.10;;
36233;SDS011;43467;50.890;5.982;2023-02-28T06:23:29;10.07;;;6.65;;
36233;SDS011;43467;50.890;5.982;2023-02-28T06:25:55;13.20;;;6.97;;
36233;SDS011;43467;50.890;5.982;2023-02-28T06:28:23;9.57;;;7.10;;
36233;SDS011;43467;50.890;5.982;2023-02-28T06:30:51;14.80;;;7.07;;
36233;SDS011;43467;50.890;5.982;2023-02-28T06:33:16;14.60;;;6.80;;
36233;SDS011;43467;50.890;5.982;2023-02-28T06:35:46;9.93;;;7.05;;
36233;SDS011;43467;50.890;5.982;2023-02-28T06:38:12;12.75;;;7.50;;
36233;SDS011;43467;50.890;5.982;2023-02-28T06:40:37;11.35;;;6.38;;
36233;SDS011;43467;50.890;5.982;2023-02-28T06:43:03;12.32;;;7.60;;
36233;SDS011;43467;50.890;5.982;2023-02-28T06:45:28;9.75;;;6.32;;
36233;SDS011;43467;50.890;5.982;2023-02-28T06:47:54;10.32;;;7.15;;
36233;SDS011;43467;50.890;5.982;2023-02-28T06:50:20;14.00;;;7.18;;
36233;SDS011;43467;50.890;5.982;2023-02-28T06:52:45;9.68;;;6.88;;
36233;SDS011;43467;50.890;5.982;2023-02-28T06:55:11;10.88;;;6.57;;
36233;SDS011;43467;50.890;5.982;2023-02-28T06:57:37;12.27;;;7.22;;
36233;SDS011;43467;50.890;5.982;2023-02-28T07:00:05;14.77;;;7.10;;
36233;SDS011;43467;50.890;5.982;2023-02-28T07:02:34;9.38;;;6.82;;
36233;SDS011;43467;50.890;5.982;2023-02-28T07:05:00;10.50;;;6.70;;
36233;SDS011;43467;50.890;5.982;2023-02-28T07:07:25;12.13;;;7.03;;
36233;SDS011;43467;50.890;5.982;2023-02-28T07:09:50;12.20;;;6.47;;
36233;SDS011;43467;50.890;5.982;2023-02-28T07:12:16;11.05;;;6.65;;
36233;SDS011;43467;50.890;5.982;2023-02-28T07:14:41;11.18;;;6.00;;
36233;SDS011;43467;50.890;5.982;2023-02-28T07:17:07;10.07;;;6.28;;
36233;SDS011;43467;50.890;5.982;2023-02-28T07:19:33;9.80;;;5.78;;
36233;SDS011;43467;50.890;5.982;2023-02-28T07:21:59;9.10;;;6.53;;
36233;SDS011;43467;50.890;5.982;2023-02-28T07:24:24;12.02;;;6.75;;
36233;SDS011;43467;50.890;5.982;2023-02-28T07:26:53;12.65;;;6.45;;
36233;SDS011;43467;50.890;5.982;2023-02-28T07:29:18;10.25;;;5.85;;
36233;SDS011;43467;50.890;5.982;2023-02-28T07:31:45;8.45;;;5.40;;
36233;SDS011;43467;50.890;5.982;2023-02-28T07:34:11;9.52;;;6.25;;
36233;SDS011;43467;50.890;5.982;2023-02-28T07:36:37;9.95;;;6.57;;
36233;SDS011;43467;50.890;5.982;2023-02-28T07:39:02;8.90;;;5.63;;
36233;SDS011;43467;50.890;5.982;2023-02-28T07:41:29;10.68;;;6.72;;
36233;SDS011;43467;50.890;5.982;2023-02-28T07:43:54;9.95;;;6.22;;
36233;SDS011;43467;50.890;5.982;2023-02-28T07:46:22;12.82;;;6.03;;
36233;SDS011;43467;50.890;5.982;2023-02-28T07:48:48;8.90;;;5.70;;
36233;SDS011;43467;50.890;5.982;2023-02-28T07:51:13;7.07;;;5.60;;
36233;SDS011;43467;50.890;5.982;2023-02-28T07:53:39;9.98;;;5.97;;
36233;SDS011;43467;50.890;5.982;2023-02-28T07:56:04;9.60;;;5.47;;
36233;SDS011;43467;50.890;5.982;2023-02-28T07:58:30;7.95;;;6.00;;
36233;SDS011;43467;50.890;5.982;2023-02-28T08:00:56;10.07;;;5.88;;
36233;SDS011;43467;50.890;5.982;2023-02-28T08:03:29;11.88;;;5.50;;
36233;SDS011;43467;50.890;5.982;2023-02-28T08:05:54;10.77;;;5.57;;
36233;SDS011;43467;50.890;5.982;2023-02-28T08:08:20;7.57;;;5.28;;
36233;SDS011;43467;50.890;5.982;2023-02-28T08:10:45;8.32;;;5.68;;
36233;SDS011;43467;50.890;5.982;2023-02-28T08:13:10;8.68;;;5.18;;
36233;SDS011;43467;50.890;5.982;2023-02-28T08:15:36;7.95;;;4.97;;
36233;SDS011;43467;50.890;5.982;2023-02-28T08:18:01;9.80;;;5.68;;
36233;SDS011;43467;50.890;5.982;2023-02-28T08:20:27;8.25;;;5.38;;
36233;SDS011;43467;50.890;5.982;2023-02-28T08:22:53;8.57;;;5.78;;
36233;SDS011;43467;50.890;5.982;2023-02-28T08:25:18;8.77;;;5.68;;
36233;SDS011;43467;50.890;5.982;2023-02-28T08:27:44;10.52;;;5.10;;
36233;SDS011;43467;50.890;5.982;2023-02-28T08:30:10;11.18;;;5.80;;
36233;SDS011;43467;50.890;5.982;2023-02-28T08:32:37;8.77;;;4.97;;
36233;SDS011;43467;50.890;5.982;2023-02-28T08:35:02;10.40;;;5.20;;
36233;SDS011;43467;50.890;5.982;2023-02-28T08:37:28;8.50;;;5.65;;
36233;SDS011;43467;50.890;5.982;2023-02-28T08:39:54;8.20;;;5.50;;
36233;SDS011;43467;50.890;5.982;2023-02-28T08:42:19;9.95;;;5.53;;
36233;SDS011;43467;50.890;5.982;2023-02-28T08:44:45;12.05;;;5.65;;
36233;SDS011;43467;50.890;5.982;2023-02-28T08:47:10;6.00;;;4.82;;
36233;SDS011;43467;50.890;5.982;2023-02-28T08:49:36;14.27;;;5.50;;
36233;SDS011;43467;50.890;5.982;2023-02-28T08:52:02;8.13;;;4.70;;
36233;SDS011;43467;50.890;5.982;2023-02-28T08:54:28;9.18;;;4.78;;
36233;SDS011;43467;50.890;5.982;2023-02-28T08:56:56;14.00;;;4.97;;
36233;SDS011;43467;50.890;5.982;2023-02-28T08:59:21;9.88;;;4.45;;
36233;SDS011;43467;50.890;5.982;2023-02-28T09:01:47;10.23;;;5.35;;
36233;SDS011;43467;50.890;5.982;2023-02-28T09:04:13;5.85;;;4.00;;
36233;SDS011;43467;50.890;5.982;2023-02-28T09:06:38;11.57;;;4.68;;
36233;SDS011;43467;50.890;5.982;2023-02-28T09:09:04;7.15;;;3.70;;
36233;SDS011;43467;50.890;5.982;2023-02-28T09:11:31;7.28;;;4.30;;
36233;SDS011;43467;50.890;5.982;2023-02-28T09:13:57;6.78;;;4.10;;
36233;SDS011;43467;50.890;5.982;2023-02-28T09:16:25;5.20;;;4.03;;
36233;SDS011;43467;50.890;5.982;2023-02-28T09:18:50;5.03;;;4.20;;
36233;SDS011;43467;50.890;5.982;2023-02-28T09:21:16;7.82;;;3.72;;
36233;SDS011;43467;50.890;5.982;2023-02-28T09:23:46;5.78;;;3.80;;
36233;SDS011;43467;50.890;5.982;2023-02-28T09:26:17;6.07;;;3.60;;
36233;SDS011;43467;50.890;5.982;2023-02-28T09:28:47;8.73;;;3.97;;
36233;SDS011;43467;50.890;5.982;2023-02-28T09:31:14;5.40;;;3.42;;
36233;SDS011;43467;50.890;5.982;2023-02-28T09:33:41;4.60;;;3.50;;
36233;SDS011;43467;50.890;5.982;2023-02-28T09:36:06;5.45;;;3.60;;
36233;SDS011;43467;50.890;5.982;2023-02-28T09:38:32;7.43;;;3.70;;
36233;SDS011;43467;50.890;5.982;2023-02-28T09:40:59;4.88;;;3.28;;
36233;SDS011;43467;50.890;5.982;2023-02-28T09:43:28;4.95;;;3.53;;
36233;SDS011;43467;50.890;5.982;2023-02-28T09:46:00;5.32;;;3.58;;
36233;SDS011;43467;50.890;5.982;2023-02-28T09:48:28;3.75;;;3.13;;
36233;SDS011;43467;50.890;5.982;2023-02-28T09:51:04;4.07;;;3.30;;
36233;SDS011;43467;50.890;5.982;2023-02-28T09:53:38;4.43;;;3.15;;
36233;SDS011;43467;50.890;5.982;2023-02-28T09:56:08;3.45;;;2.65;;
36233;SDS011;43467;50.890;5.982;2023-02-28T09:58:49;4.72;;;2.97;;
36233;SDS011;43467;50.890;5.982;2023-02-28T10:06:29;2.97;;;2.25;;
36233;SDS011;43467;50.890;5.982;2023-02-28T10:11:23;4.93;;;2.80;;
36233;SDS011;43467;50.890;5.982;2023-02-28T10:13:56;3.35;;;2.42;;
36233;SDS011;43467;50.890;5.982;2023-02-28T10:19:06;3.85;;;2.47;;
36233;SDS011;43467;50.890;5.982;2023-02-28T10:26:58;4.40;;;2.72;;
36233;SDS011;43467;50.890;5.982;2023-02-28T10:29:26;2.42;;;2.10;;
36233;SDS011;43467;50.890;5.982;2023-02-28T10:31:53;3.45;;;2.50;;
36233;SDS011;43467;50.890;5.982;2023-02-28T10:34:18;4.88;;;2.88;;
36233;SDS011;43467;50.890;5.982;2023-02-28T10:36:43;3.40;;;2.40;;
36233;SDS011;43467;50.890;5.982;2023-02-28T10:44:46;3.13;;;2.13;;
36233;SDS011;43467;50.890;5.982;2023-02-28T10:47:16;3.47;;;2.45;;
36233;SDS011;43467;50.890;5.982;2023-02-28T10:49:49;7.28;;;2.50;;
36233;SDS011;43467;50.890;5.982;2023-02-28T10:52:39;6.68;;;2.92;;
36233;SDS011;43467;50.890;5.982;2023-02-28T10:55:23;3.92;;;2.28;;
36233;SDS011;43467;50.890;5.982;2023-02-28T10:57:50;5.28;;;2.67;;
36233;SDS011;43467;50.890;5.982;2023-02-28T11:00:19;2.88;;;2.00;;
36233;SDS011;43467;50.890;5.982;2023-02-28T11:02:46;2.80;;;2.30;;
36233;SDS011;43467;50.890;5.982;2023-02-28T11:07:51;4.13;;;2.33;;
36233;SDS011;43467;50.890;5.982;2023-02-28T11:10:19;5.05;;;2.22;;
36233;SDS011;43467;50.890;5.982;2023-02-28T11:12:48;4.15;;;2.13;;
36233;SDS011;43467;50.890;5.982;2023-02-28T11:17:52;4.18;;;2.65;;
36233;SDS011;43467;50.890;5.982;2023-02-28T11:20:33;5.80;;;2.53;;
36233;SDS011;43467;50.890;5.982;2023-02-28T11:23:00;6.70;;;2.70;;
36233;SDS011;43467;50.890;5.982;2023-02-28T11:25:35;2.30;;;2.10;;
36233;SDS011;43467;50.890;5.982;2023-02-28T11:33:49;8.23;;;2.90;;
36233;SDS011;43467;50.890;5.982;2023-02-28T11:36:20;5.22;;;2.95;;
36233;SDS011;43467;50.890;5.982;2023-02-28T11:38:52;6.65;;;2.80;;
36233;SDS011;43467;50.890;5.982;2023-02-28T11:41:30;4.93;;;2.72;;
36233;SDS011;43467;50.890;5.982;2023-02-28T11:49:32;4.28;;;2.88;;
36233;SDS011;43467;50.890;5.982;2023-02-28T12:03:09;3.67;;;2.67;;
36233;SDS011;43467;50.890;5.982;2023-02-28T12:06:01;6.03;;;2.85;;
36233;SDS011;43467;50.890;5.982;2023-02-28T12:21:46;4.90;;;2.97;;
36233;SDS011;43467;50.890;5.982;2023-02-28T12:27:28;6.18;;;3.05;;
36233;SDS011;43467;50.890;5.982;2023-02-28T12:29:58;5.03;;;3.25;;
36233;SDS011;43467;50.890;5.982;2023-02-28T12:35:25;6.30;;;3.40;;
36233;SDS011;43467;50.890;5.982;2023-02-28T12:38:14;3.90;;;3.10;;
36233;SDS011;43467;50.890;5.982;2023-02-28T12:40:45;5.30;;;3.67;;
36233;SDS011;43467;50.890;5.982;2023-02-28T12:43:16;4.55;;;3.10;;
36233;SDS011;43467;50.890;5.982;2023-02-28T12:48:17;6.47;;;3.45;;
36233;SDS011;43467;50.890;5.982;2023-02-28T12:50:49;5.28;;;3.60;;
36233;SDS011;43467;50.890;5.982;2023-02-28T12:53:22;4.20;;;3.08;;
36233;SDS011;43467;50.890;5.982;2023-02-28T12:56:02;4.10;;;3.28;;
36233;SDS011;43467;50.890;5.982;2023-02-28T13:11:43;5.30;;;3.55;;
36233;SDS011;43467;50.890;5.982;2023-02-28T13:14:16;5.07;;;3.50;;
36233;SDS011;43467;50.890;5.982;2023-02-28T13:17:01;3.30;;;3.00;;
36233;SDS011;43467;50.890;5.982;2023-02-28T13:20:00;8.38;;;3.67;;
36233;SDS011;43467;50.890;5.982;2023-02-28T13:24:51;6.47;;;3.55;;
36233;SDS011;43467;50.890;5.982;2023-02-28T13:29:43;7.53;;;3.35;;
36233;SDS011;43467;50.890;5.982;2023-02-28T13:34:38;7.22;;;3.38;;
36233;SDS011;43467;50.890;5.982;2023-02-28T13:39:50;3.83;;;3.08;;
36233;SDS011;43467;50.890;5.982;2023-02-28T13:47:29;5.68;;;3.30;;
36233;SDS011;43467;50.890;5.982;2023-02-28T13:50:41;4.50;;;3.20;;
36233;SDS011;43467;50.890;5.982;2023-02-28T14:09:03;4.53;;;3.75;;
36233;SDS011;43467;50.890;5.982;2023-02-28T14:11:43;5.03;;;3.08;;
36233;SDS011;43467;50.890;5.982;2023-02-28T14:14:09;4.53;;;3.83;;
36233;SDS011;43467;50.890;5.982;2023-02-28T14:17:03;4.47;;;3.42;;
36233;SDS011;43467;50.890;5.982;2023-02-28T14:19:32;4.75;;;3.55;;
36233;SDS011;43467;50.890;5.982;2023-02-28T14:22:18;5.25;;;3.20;;
36233;SDS011;43467;50.890;5.982;2023-02-28T14:30:12;4.40;;;3.55;;
36233;SDS011;43467;50.890;5.982;2023-02-28T14:33:18;5.95;;;3.75;;
36233;SDS011;43467;50.890;5.982;2023-02-28T14:35:56;4.63;;;3.42;;
36233;SDS011;43467;50.890;5.982;2023-02-28T14:38:32;7.57;;;3.88;;
36233;SDS011;43467;50.890;5.982;2023-02-28T14:41:39;4.13;;;3.53;;
36233;SDS011;43467;50.890;5.982;2023-02-28T14:44:22;6.25;;;4.00;;
36233;SDS011;43467;50.890;5.982;2023-02-28T14:46:53;5.75;;;3.85;;
36233;SDS011;43467;50.890;5.982;2023-02-28T14:49:36;5.32;;;3.38;;
36233;SDS011;43467;50.890;5.982;2023-02-28T14:52:12;5.78;;;3.95;;
36233;SDS011;43467;50.890;5.982;2023-02-28T14:54:45;5.22;;;3.33;;
36233;SDS011;43467;50.890;5.982;2023-02-28T14:57:21;5.32;;;3.53;;
36233;SDS011;43467;50.890;5.982;2023-02-28T14:59:56;4.90;;;3.50;;
36233;SDS011;43467;50.890;5.982;2023-02-28T15:02:44;9.90;;;3.95;;
36233;SDS011;43467;50.890;5.982;2023-02-28T15:07:41;5.00;;;3.67;;
36233;SDS011;43467;50.890;5.982;2023-02-28T15:12:39;5.40;;;3.45;;
36233;SDS011;43467;50.890;5.982;2023-02-28T15:15:13;5.90;;;4.03;;
36233;SDS011;43467;50.890;5.982;2023-02-28T15:17:40;8.25;;;4.05;;
36233;SDS011;43467;50.890;5.982;2023-02-28T15:20:11;7.07;;;3.67;;
36233;SDS011;43467;50.890;5.982;2023-02-28T15:22:38;5.72;;;3.67;;
36233;SDS011;43467;50.890;5.982;2023-02-28T15:25:05;5.05;;;3.90;;
36233;SDS011;43467;50.890;5.982;2023-02-28T15:27:33;4.72;;;3.78;;
36233;SDS011;43467;50.890;5.982;2023-02-28T15:30:06;6.40;;;4.30;;
36233;SDS011;43467;50.890;5.982;2023-02-28T15:32:37;5.88;;;3.90;;
36233;SDS011;43467;50.890;5.982;2023-02-28T15:37:54;5.18;;;3.65;;
36233;SDS011;43467;50.890;5.982;2023-02-28T15:40:27;6.32;;;3.60;;
36233;SDS011;43467;50.890;5.982;2023-02-28T15:42:58;7.03;;;4.40;;
36233;SDS011;43467;50.890;5.982;2023-02-28T15:45:31;5.57;;;3.70;;
36233;SDS011;43467;50.890;5.982;2023-02-28T15:50:29;5.53;;;3.47;;
36233;SDS011;43467;50.890;5.982;2023-02-28T15:52:55;6.95;;;4.13;;
36233;SDS011;43467;50.890;5.982;2023-02-28T15:55:22;4.43;;;4.00;;
36233;SDS011;43467;50.890;5.982;2023-02-28T15:57:52;4.35;;;3.42;;
36233;SDS011;43467;50.890;5.982;2023-02-28T16:00:21;6.40;;;3.97;;
36233;SDS011;43467;50.890;5.982;2023-02-28T16:02:48;5.25;;;3.80;;
36233;SDS011;43467;50.890;5.982;2023-02-28T16:07:42;5.13;;;3.72;;
36233;SDS011;43467;50.890;5.982;2023-02-28T16:10:09;6.50;;;3.45;;
36233;SDS011;43467;50.890;5.982;2023-02-28T16:12:37;5.05;;;3.72;;
36233;SDS011;43467;50.890;5.982;2023-02-28T16:15:08;5.72;;;3.45;;
36233;SDS011;43467;50.890;5.982;2023-02-28T16:17:42;5.53;;;3.03;;
36233;SDS011;43467;50.890;5.982;2023-02-28T16:20:18;5.35;;;3.70;;
36233;SDS011;43467;50.890;5.982;2023-02-28T16:22:45;4.28;;;3.53;;
36233;SDS011;43467;50.890;5.982;2023-02-28T16:25:11;4.15;;;3.55;;
36233;SDS011;43467;50.890;5.982;2023-02-28T16:27:38;8.52;;;3.60;;
36233;SDS011;43467;50.890;5.982;2023-02-28T16:30:04;5.18;;;3.70;;
36233;SDS011;43467;50.890;5.982;2023-02-28T16:32:31;5.53;;;3.97;;
36233;SDS011;43467;50.890;5.982;2023-02-28T16:35:00;6.20;;;4.10;;
36233;SDS011;43467;50.890;5.982;2023-02-28T16:37:26;6.65;;;3.97;;
36233;SDS011;43467;50.890;5.982;2023-02-28T16:39:53;8.23;;;4.68;;
36233;SDS011;43467;50.890;5.982;2023-02-28T16:42:24;8.95;;;3.72;;
36233;SDS011;43467;50.890;5.982;2023-02-28T16:44:54;4.80;;;3.65;;
36233;SDS011;43467;50.890;5.982;2023-02-28T16:47:20;8.65;;;3.80;;
36233;SDS011;43467;50.890;5.982;2023-02-28T16:49:47;5.72;;;3.90;;
36233;SDS011;43467;50.890;5.982;2023-02-28T16:52:14;7.43;;;3.40;;
36233;SDS011;43467;50.890;5.982;2023-02-28T16:54:41;6.10;;;3.45;;
36233;SDS011;43467;50.890;5.982;2023-02-28T16:57:17;7.88;;;3.78;;
36233;SDS011;43467;50.890;5.982;2023-02-28T16:59:46;6.60;;;4.38;;
36233;SDS011;43467;50.890;5.982;2023-02-28T17:02:14;6.07;;;3.85;;
36233;SDS011;43467;50.890;5.982;2023-02-28T17:04:42;9.43;;;3.85;;
36233;SDS011;43467;50.890;5.982;2023-02-28T17:07:11;6.82;;;3.97;;
36233;SDS011;43467;50.890;5.982;2023-02-28T17:09:41;6.88;;;3.83;;
36233;SDS011;43467;50.890;5.982;2023-02-28T17:12:07;6.82;;;4.03;;
36233;SDS011;43467;50.890;5.982;2023-02-28T17:14:33;5.43;;;3.95;;
36233;SDS011;43467;50.890;5.982;2023-02-28T17:17:00;6.80;;;3.92;;
36233;SDS011;43467;50.890;5.982;2023-02-28T17:19:28;7.10;;;4.28;;
36233;SDS011;43467;50.890;5.982;2023-02-28T17:21:55;8.80;;;4.45;;
36233;SDS011;43467;50.890;5.982;2023-02-28T17:24:20;7.45;;;4.50;;
36233;SDS011;43467;50.890;5.982;2023-02-28T17:26:45;8.93;;;4.57;;
36233;SDS011;43467;50.890;5.982;2023-02-28T17:29:13;6.70;;;4.10;;
36233;SDS011;43467;50.890;5.982;2023-02-28T17:31:43;4.63;;;4.03;;
36233;SDS011;43467;50.890;5.982;2023-02-28T17:34:10;5.85;;;4.53;;
36233;SDS011;43467;50.890;5.982;2023-02-28T17:36:43;7.40;;;4.68;;
36233;SDS011;43467;50.890;5.982;2023-02-28T17:39:11;8.35;;;4.95;;
36233;SDS011;43467;50.890;5.982;2023-02-28T17:41:42;6.05;;;4.45;;
36233;SDS011;43467;50.890;5.982;2023-02-28T17:44:09;6.93;;;4.28;;
36233;SDS011;43467;50.890;5.982;2023-02-28T17:46:35;8.77;;;4.93;;
36233;SDS011;43467;50.890;5.982;2023-02-28T17:49:01;8.90;;;5.03;;